Aeroporto :
LOGIN :

Iscrizione | Disclaimer

   EN    FR    IT 

 










Sommario :    VFR   VFR Marginale   IFR   IFR Intensivo   IFR Molto Intensivo
Visibilità : 
Base nubi : 
>= 8 km
>= 3000ft
5 / 8 km
1000 / 3000 ft
1500m / 5 km
500 / 1000 ft
800 / 1500m
200 / 500 ft
< 800m
< 200 ft
Simboli :   Temporali  Nebbia  Neve Forte  Precipitazioni Forti  Vento > 20 kt
SIGMETs :   Varie  Temporali  Ghiacco  Turbolenza  Onda orograficha  Ceneri Vulcaniche






- Altitudine del aeroporto : 1106 ft


LFSO - Nancy / Ochey

ULTIMO METAR :
  • 240830Z AUTO 11004KT 080V140 0200 R20/M0200N FG VV/// 01/01 Q1025 BECMG 2500 BR BKN002

METARs OBSOLETI :
  • 240800Z AUTO VRB03KT 0200 0150 R20/M0200D FG VV/// 00/00 Q1025 BECMG 0600 FG
  • 240730Z AUTO VRB02KT 0250 R20/0250N FZFG VV/// M00/M00 Q1025 BECMG 0600 FG
  • 240700Z AUTO 06002KT 0300 R20/0325N FZFG VV/// M00/M00 Q1025 BECMG 0600 FG
  • 240630Z AUTO VRB01KT 0300 0250 R20/0325N FZFG VV/// M00/M00 Q1025 BECMG 0600 FG
  • 240600Z AUTO 00000KT 0350 0200 R20/0225N FG VV/// 00/M00 Q1025

TAF TAF LFSO
Valido dal 24 a 09 ore il 25 a 09 ore UTC


240800Z 2409/2509 VRB02KT 0100 FZFG VV///
BECMG 2409/2410 0400 FG
BECMG 2410/2412 2500 BR BKN002
TEMPO 2412/2415 6000 NSW BKN005
BECMG 2416/2418 0300 FG VV///
FM250300 18008KT 8000 NSC



MetMap, La meteo Aeronautica in un colpo d'occhio ! - Copyright ORBIFLY Dicembre 2007 - Disclaimer

ORBIFLY MET'MAP TEAM :

Programmazione e sviluppo : Alexandra Zaïnal
Concezione : Baudouin d'Aumeries
Aiuto per la programmazione : Marc-Olivier Méhu
Supporto tecnico e logistico : Manuel Goepfert
Aiuto per la traduzione : Arnaldo La Scala

Contatto : metmap@orbifly.com




FONTI E CREDITI :

   NOAA